Time;durP1;ratioP1;P1;durP2;ratioP2;P2;SDS_P1;SDS_P2;PMS_P1;PMS_P2;Temp;Humidity;BMP_temperature;BMP_pressure;BME280_temperature;BME280_humidity;BME280_pressure;Samples;Min_cycle;Max_cycle;Signal;HPM_P1;HPM_P2
2024/01/24 00:02:48;;;;;;;5.95;2.70;;;12.50;89.90;;;;;;9179207;19;20022;-76
2024/01/24 00:05:54;;;;;;;11.85;3.50;;;12.60;89.90;;;;;;9178233;19;20484;-75
2024/01/24 00:09:05;;;;;;;5.88;2.95;;;12.70;90.00;;;;;;9174286;19;20020;-76
2024/01/24 00:12:11;;;;;;;8.73;2.90;;;12.70;89.90;;;;;;9179914;19;20022;-76
2024/01/24 00:15:18;;;;;;;5.57;2.80;;;12.70;89.90;;;;;;9177549;19;20496;-75
2024/01/24 00:18:24;;;;;;;9.45;3.10;;;12.70;89.80;;;;;;9179527;19;20019;-74
2024/01/24 00:21:32;;;;;;;6.85;2.53;;;12.80;89.90;;;;;;9179752;19;20019;-75
2024/01/24 00:24:40;;;;;;;7.25;2.47;;;12.80;89.90;;;;;;9178527;19;20020;-75
2024/01/24 00:27:48;;;;;;;10.13;2.60;;;12.90;90.00;;;;;;9177508;19;20019;-75
2024/01/24 00:30:53;;;;;;;4.75;2.50;;;12.90;90.00;;;;;;9179047;19;20452;-74
2024/01/24 00:34:01;;;;;;;8.82;2.35;;;13.00;90.00;;;;;;9175430;19;20021;-75
2024/01/24 00:37:10;;;;;;;3.70;2.08;;;13.00;90.40;;;;;;9178716;19;20007;-76
2024/01/24 00:40:20;;;;;;;7.82;2.20;;;13.00;90.00;;;;;;9177173;19;20006;-75
2024/01/24 00:43:26;;;;;;;5.78;2.58;;;13.10;90.20;;;;;;9176889;19;20011;-75
2024/01/24 00:46:33;;;;;;;6.47;1.98;;;13.10;90.00;;;;;;9176418;19;20480;-74
2024/01/24 00:49:39;;;;;;;10.60;2.40;;;13.20;90.00;;;;;;9177711;19;20046;-77
2024/01/24 00:52:51;;;;;;;8.82;2.47;;;13.20;90.00;;;;;;9178387;19;20018;-76
2024/01/24 00:55:59;;;;;;;5.47;1.90;;;13.30;90.00;;;;;;9176844;19;20029;-76
2024/01/24 00:59:07;;;;;;;7.38;1.88;;;13.40;90.00;;;;;;9177328;19;20484;-76
2024/01/24 01:02:13;;;;;;;3.70;1.90;;;13.30;89.90;;;;;;9178590;19;20010;-75
2024/01/24 01:05:25;;;;;;;3.65;1.70;;;13.30;90.00;;;;;;9174739;19;20360;-76
2024/01/24 01:08:31;;;;;;;7.50;1.90;;;13.40;90.00;;;;;;9175233;19;20443;-75
2024/01/24 01:11:43;;;;;;;7.32;2.08;;;13.30;89.80;;;;;;9170838;19;20021;-75
2024/01/24 01:14:54;;;;;;;4.82;2.10;;;13.40;89.90;;;;;;9175780;19;20025;-77
2024/01/24 01:18:02;;;;;;;;;;;13.40;90.00;;;;;;9177003;19;20051;-75
2024/01/24 01:21:08;;;;;;;5.78;1.70;;;13.40;89.70;;;;;;9175394;19;19934;-75
2024/01/24 01:24:16;;;;;;;5.40;1.70;;;13.40;89.60;;;;;;9175925;19;20500;-77
2024/01/24 01:27:27;;;;;;;2.40;1.67;;;13.40;89.60;;;;;;9173394;19;20400;-74
2024/01/24 01:30:37;;;;;;;3.63;1.95;;;13.40;89.70;;;;;;9174584;19;20017;-77
2024/01/24 01:33:42;;;;;;;3.53;1.55;;;13.40;89.70;;;;;;9175305;19;20010;-75
2024/01/24 01:36:50;;;;;;;1.40;1.05;;;13.40;89.70;;;;;;9175060;19;20469;-75
2024/01/24 01:39:56;;;;;;;5.53;1.70;;;13.40;89.70;;;;;;9174603;19;20357;-76
2024/01/24 01:43:11;;;;;;;2.58;1.42;;;13.40;89.70;;;;;;9174720;19;20030;-75
2024/01/24 01:46:21;;;;;;;2.38;1.40;;;13.40;89.80;;;;;;9172989;19;20017;-75
2024/01/24 01:49:36;;;;;;;2.78;1.30;;;13.40;89.80;;;;;;9174949;19;20021;-75
2024/01/24 01:52:44;;;;;;;1.52;1.30;;;13.40;89.70;;;;;;9175043;19;20505;-76
2024/01/24 01:55:52;;;;;;;1.40;1.20;;;13.30;89.70;;;;;;9175243;19;20045;-75
2024/01/24 01:59:01;;;;;;;1.27;1.17;;;13.40;89.70;;;;;;9175803;19;20010;-74
2024/01/24 02:02:09;;;;;;;1.30;1.10;;;13.30;89.70;;;;;;9173389;19;20015;-75
2024/01/24 02:05:15;;;;;;;1.52;1.15;;;13.30;89.80;;;;;;9173771;19;20022;-75
2024/01/24 02:08:22;;;;;;;2.97;1.10;;;13.30;89.80;;;;;;9173265;19;20014;-75
2024/01/24 02:11:28;;;;;;;3.85;1.10;;;13.30;89.90;;;;;;9170523;19;20011;-75
2024/01/24 02:14:38;;;;;;;3.97;1.00;;;13.30;89.90;;;;;;9172484;19;20364;-78
2024/01/24 02:17:44;;;;;;;1.80;0.85;;;13.30;90.00;;;;;;9174682;19;20014;-75
2024/01/24 02:20:52;;;;;;;1.13;1.00;;;13.30;89.90;;;;;;9175029;19;20078;-77
2024/01/24 02:23:59;;;;;;;1.80;1.13;;;13.20;90.20;;;;;;9173879;19;20011;-75
2024/01/24 02:27:12;;;;;;;0.88;0.70;;;13.20;90.00;;;;;;9173183;19;20015;-74
2024/01/24 02:30:17;;;;;;;1.38;1.00;;;13.20;90.00;;;;;;9172881;19;20014;-75
2024/01/24 02:33:25;;;;;;;0.68;0.60;;;13.20;90.00;;;;;;9170804;19;20014;-75
2024/01/24 02:36:31;;;;;;;1.75;0.73;;;13.20;90.00;;;;;;9170524;19;20464;-76
2024/01/24 02:39:38;;;;;;;1.30;0.68;;;13.20;90.10;;;;;;9173712;19;20015;-76
2024/01/24 02:42:47;;;;;;;1.70;0.70;;;13.20;90.10;;;;;;9172627;19;20368;-76
2024/01/24 02:45:54;;;;;;;0.30;0.30;;;13.20;90.10;;;;;;9172769;19;20110;-75
2024/01/24 02:49:02;;;;;;;0.30;0.30;;;13.20;90.10;;;;;;9173477;19;20007;-75
2024/01/24 02:52:09;;;;;;;0.60;0.38;;;13.20;90.10;;;;;;9174317;19;20055;-77
2024/01/24 02:55:17;;;;;;;0.30;0.30;;;13.20;90.10;;;;;;9172409;19;20364;-76
2024/01/24 02:58:27;;;;;;;0.40;0.40;;;13.20;90.40;;;;;;9173827;19;20018;-76
2024/01/24 03:01:33;;;;;;;0.30;0.30;;;13.20;90.10;;;;;;9183152;19;20357;-76
2024/01/24 03:04:40;;;;;;;0.88;0.60;;;13.20;90.10;;;;;;9181804;19;20360;-76
2024/01/24 03:07:46;;;;;;;0.98;0.38;;;13.20;90.10;;;;;;9179467;19;20405;-76
2024/01/24 03:10:54;;;;;;;0.20;0.20;;;13.20;90.10;;;;;;9175906;19;20948;-76
2024/01/24 03:14:02;;;;;;;0.88;0.40;;;13.20;90.10;;;;;;9182407;19;20562;-76
2024/01/24 03:17:10;;;;;;;1.20;0.28;;;13.20;90.10;;;;;;9181367;19;20026;-76
2024/01/24 03:20:16;;;;;;;0.93;0.38;;;13.30;90.20;;;;;;9181369;19;20064;-76
2024/01/24 03:23:25;;;;;;;2.83;0.65;;;13.20;90.10;;;;;;9181509;19;20014;-76
2024/01/24 03:26:30;;;;;;;0.80;0.38;;;13.20;90.10;;;;;;9178951;19;20019;-75
2024/01/24 03:29:43;;;;;;;0.43;0.30;;;13.20;90.10;;;;;;9178783;19;20015;-76
2024/01/24 03:32:48;;;;;;;0.80;0.40;;;13.20;90.10;;;;;;9181864;19;20119;-75
2024/01/24 03:35:56;;;;;;;1.90;0.52;;;13.20;90.10;;;;;;9179533;19;20373;-76
2024/01/24 03:39:01;;;;;;;0.35;0.32;;;13.10;90.10;;;;;;9180536;19;20074;-75
2024/01/24 03:42:09;;;;;;;0.73;0.40;;;13.10;90.10;;;;;;9179461;19;20023;-73
2024/01/24 03:45:17;;;;;;;0.95;0.50;;;13.10;90.10;;;;;;9179176;19;20679;-76
2024/01/24 03:48:25;;;;;;;3.10;0.68;;;13.10;90.10;;;;;;9175481;19;20204;-75
2024/01/24 03:51:31;;;;;;;2.25;1.00;;;13.10;90.10;;;;;;9177886;19;20023;-76
2024/01/24 03:54:39;;;;;;;3.60;0.80;;;13.10;90.10;;;;;;9177461;19;20503;-75
2024/01/24 03:57:44;;;;;;;3.53;1.23;;;13.10;90.10;;;;;;9179332;19;20011;-76
2024/01/24 04:00:55;;;;;;;5.53;1.00;;;13.10;90.10;;;;;;9180846;19;20014;-75
2024/01/24 04:04:01;;;;;;;5.75;1.15;;;13.00;90.00;;;;;;9177939;19;20380;-75
2024/01/24 04:07:08;;;;;;;7.50;1.73;;;13.00;90.00;;;;;;9176934;19;20033;-75
2024/01/24 04:10:15;;;;;;;8.90;1.88;;;13.00;89.90;;;;;;9170601;19;20029;-76
2024/01/24 04:13:23;;;;;;;8.88;2.05;;;12.90;89.90;;;;;;9179679;19;20026;-75
2024/01/24 04:16:32;;;;;;;12.38;1.48;;;12.90;89.70;;;;;;9177957;19;20017;-75
2024/01/24 04:19:41;;;;;;;6.28;1.20;;;12.90;89.70;;;;;;9176607;19;20017;-75
2024/01/24 04:22:47;;;;;;;8.25;1.95;;;12.90;89.70;;;;;;9177635;19;20480;-75
2024/01/24 04:25:54;;;;;;;11.27;1.27;;;12.80;89.50;;;;;;9178724;19;20010;-74
2024/01/24 04:29:00;;;;;;;9.98;2.30;;;12.80;89.50;;;;;;9176952;19;20014;-75
2024/01/24 04:32:10;;;;;;;10.15;1.17;;;12.80;89.50;;;;;;9177466;19;20429;-75
2024/01/24 04:35:16;;;;;;;8.40;1.42;;;12.80;89.40;;;;;;9179046;19;20018;-75
2024/01/24 04:38:24;;;;;;;9.85;1.50;;;12.70;89.40;;;;;;9176743;19;20376;-75
2024/01/24 04:41:29;;;;;;;27.83;2.40;;;12.70;89.30;;;;;;9178144;19;20107;-75
2024/01/24 04:44:37;;;;;;;17.52;3.33;;;12.70;89.30;;;;;;9178516;19;20018;-75
2024/01/24 04:47:45;;;;;;;11.95;2.45;;;12.70;89.20;;;;;;9177326;19;20011;-74
2024/01/24 04:50:53;;;;;;;14.30;2.20;;;12.70;89.00;;;;;;9177730;19;20116;-74
2024/01/24 04:53:58;;;;;;;13.07;2.38;;;12.70;89.10;;;;;;9177968;19;20082;-76
2024/01/24 04:57:07;;;;;;;17.05;2.70;;;12.70;89.00;;;;;;9178147;19;20026;-78
2024/01/24 05:00:14;;;;;;;14.50;2.88;;;12.60;88.80;;;;;;9175395;19;20021;-75
2024/01/24 05:03:24;;;;;;;12.23;2.50;;;12.60;88.70;;;;;;9177271;19;20022;-75
2024/01/24 05:06:30;;;;;;;14.43;2.47;;;12.80;88.70;;;;;;9176329;19;20044;-75
2024/01/24 05:09:38;;;;;;;20.17;3.20;;;12.60;88.50;;;;;;9171510;19;20031;-77
2024/01/24 05:12:46;;;;;;;19.23;2.65;;;12.60;88.50;;;;;;9176742;19;20053;-76
2024/01/24 05:15:57;;;;;;;22.05;3.50;;;12.60;88.50;;;;;;9176039;19;20007;-77
2024/01/24 05:19:05;;;;;;;29.88;5.38;;;12.60;88.50;;;;;;9176951;19;20102;-75
2024/01/24 05:22:13;;;;;;;19.10;3.22;;;12.60;88.10;;;;;;9173314;19;20016;-75
2024/01/24 05:25:18;;;;;;;21.60;4.00;;;12.50;88.00;;;;;;9176830;19;20022;-75
2024/01/24 05:28:26;;;;;;;25.83;3.65;;;12.50;87.90;;;;;;9176048;19;20377;-75
2024/01/24 05:31:33;;;;;;;24.23;3.88;;;12.50;87.80;;;;;;9177002;19;20061;-75
2024/01/24 05:34:43;;;;;;;28.30;3.50;;;12.50;87.60;;;;;;9175703;19;20014;-75
2024/01/24 05:37:49;;;;;;;28.45;4.80;;;12.50;87.50;;;;;;9176617;19;20578;-76
2024/01/24 05:40:57;;;;;;;29.38;4.47;;;12.50;87.30;;;;;;9175498;19;20014;-75
2024/01/24 05:44:02;;;;;;;34.45;4.35;;;12.40;87.30;;;;;;9174868;19;20021;-75
2024/01/24 05:47:10;;;;;;;41.50;6.68;;;12.40;87.10;;;;;;9176027;19;20018;-74
2024/01/24 05:50:19;;;;;;;33.38;4.65;;;12.40;87.00;;;;;;9173736;19;20010;-75
2024/01/24 05:53:26;;;;;;;38.78;4.45;;;12.40;86.80;;;;;;9175713;19;20018;-74
2024/01/24 05:56:32;;;;;;;30.88;4.65;;;12.30;86.70;;;;;;9174747;19;20014;-74
2024/01/24 05:59:39;;;;;;;33.10;6.18;;;12.40;86.70;;;;;;9174257;19;20512;-74
2024/01/24 06:02:47;;;;;;;33.35;5.70;;;12.30;86.50;;;;;;9174855;19;20062;-75
2024/01/24 06:05:58;;;;;;;25.08;4.60;;;12.30;86.40;;;;;;9172431;19;20014;-76
2024/01/24 06:09:03;;;;;;;34.53;4.97;;;12.20;86.20;;;;;;9167257;19;20007;-76
2024/01/24 06:12:11;;;;;;;25.23;4.43;;;12.20;86.10;;;;;;9173566;19;20659;-75
2024/01/24 06:15:22;;;;;;;27.38;4.95;;;12.20;86.00;;;;;;9172876;19;20373;-75
2024/01/24 06:18:32;;;;;;;31.40;4.25;;;12.10;85.90;;;;;;9173826;19;20014;-73
2024/01/24 06:21:41;;;;;;;32.25;4.53;;;12.10;85.70;;;;;;9173767;19;20031;-76
2024/01/24 06:24:48;;;;;;;28.63;4.70;;;12.10;85.50;;;;;;9174646;19;20019;-75
2024/01/24 06:27:54;;;;;;;30.52;5.43;;;12.00;85.50;;;;;;9174436;19;20015;-74
2024/01/24 06:31:02;;;;;;;37.50;4.53;;;11.90;85.50;;;;;;9174896;19;20052;-76
2024/01/24 06:34:18;;;;;;;37.10;5.20;;;11.90;85.50;;;;;;9174772;19;20015;-74
2024/01/24 06:37:28;;;;;;;42.40;5.60;;;11.90;85.10;;;;;;9182434;19;20014;-75
2024/01/24 06:40:40;;;;;;;32.15;4.30;;;11.80;85.00;;;;;;9181226;19;20018;-76
2024/01/24 06:43:49;;;;;;;47.05;5.05;;;11.90;85.80;;;;;;9181417;19;20021;-75
2024/01/24 06:46:56;;;;;;;31.55;5.28;;;11.80;85.00;;;;;;9180228;19;20369;-74
2024/01/24 06:50:08;;;;;;;35.67;5.00;;;11.70;85.00;;;;;;9176902;19;20683;-75
2024/01/24 06:53:17;;;;;;;36.65;5.03;;;11.70;84.90;;;;;;9183378;19;20483;-75
2024/01/24 06:56:26;;;;;;;36.95;6.10;;;11.70;84.80;;;;;;9180163;19;20018;-76
2024/01/24 06:59:32;;;;;;;44.90;5.95;;;11.70;85.00;;;;;;9177968;19;20010;-74
2024/01/24 07:02:40;;;;;;;49.53;7.15;;;11.70;84.80;;;;;;9180512;19;20020;-74
2024/01/24 07:05:46;;;;;;;31.67;5.53;;;11.70;84.80;;;;;;9179267;19;20015;-74
2024/01/24 07:08:59;;;;;;;49.08;6.15;;;11.60;84.70;;;;;;9180595;19;20010;-74
2024/01/24 07:12:05;;;;;;;41.75;5.78;;;11.70;84.80;;;;;;9180118;19;20019;-75
2024/01/24 07:15:13;;;;;;;49.20;5.93;;;11.50;84.60;;;;;;9179176;19;20006;-75
2024/01/24 07:18:20;;;;;;;41.80;6.53;;;12.00;84.90;;;;;;9181127;19;20047;-74
2024/01/24 07:21:30;;;;;;;49.00;6.95;;;11.70;84.60;;;;;;9180215;19;20023;-74
2024/01/24 07:24:38;;;;;;;37.30;6.35;;;11.60;84.50;;;;;;9180677;19;20007;-74
2024/01/24 07:27:46;;;;;;;40.67;6.35;;;11.70;84.40;;;;;;9181654;19;20014;-74
2024/01/24 07:30:51;;;;;;;38.95;6.45;;;11.70;85.00;;;;;;9176848;19;20029;-75
2024/01/24 07:33:59;;;;;;;38.53;5.03;;;11.70;84.30;;;;;;9180961;19;20121;-75
2024/01/24 07:37:06;;;;;;;45.30;6.28;;;11.60;84.20;;;;;;9180932;19;20058;-74
2024/01/24 07:40:17;;;;;;;39.75;5.85;;;11.70;84.30;;;;;;9177608;19;20666;-75
2024/01/24 07:43:22;;;;;;;49.25;6.15;;;11.70;84.10;;;;;;9181270;19;20037;-74
2024/01/24 07:46:32;;;;;;;49.40;7.43;;;11.70;84.00;;;;;;9178056;19;20025;-75
2024/01/24 07:49:38;;;;;;;52.70;7.00;;;11.60;83.90;;;;;;9177666;19;20811;-75
2024/01/24 07:52:46;;;;;;;36.25;6.28;;;11.70;84.00;;;;;;9178135;19;20014;-75
2024/01/24 07:55:56;;;;;;;56.67;6.53;;;11.70;83.80;;;;;;9178625;19;20048;-74
2024/01/24 07:59:17;;;;;;;40.95;6.57;;;11.70;83.80;;;;;;9180636;19;20036;-73
2024/01/24 08:02:23;;;;;;;44.20;6.70;;;11.60;83.50;;;;;;9181417;19;20472;-75
2024/01/24 08:05:32;;;;;;;42.15;5.97;;;11.60;83.50;;;;;;9177426;19;20045;-74
2024/01/24 08:08:37;;;;;;;37.15;6.75;;;11.60;83.40;;;;;;9177113;19;20049;-74
2024/01/24 08:11:48;;;;;;;39.13;5.68;;;11.60;83.30;;;;;;9172989;19;20468;-74
2024/01/24 08:14:53;;;;;;;36.55;5.88;;;11.60;83.20;;;;;;9179571;19;20052;-74
2024/01/24 08:18:02;;;;;;;49.67;6.15;;;11.50;83.10;;;;;;9178983;19;20023;-74
2024/01/24 08:21:09;;;;;;;43.25;7.07;;;11.50;83.10;;;;;;9178787;19;20640;-74
2024/01/24 08:24:16;;;;;;;36.97;7.50;;;11.50;83.00;;;;;;9176289;19;20003;-72
2024/01/24 08:27:25;;;;;;;35.22;5.75;;;11.50;82.90;;;;;;9175752;19;20463;-76
2024/01/24 08:30:38;;;;;;;35.47;5.80;;;11.50;82.90;;;;;;9167030;19;20014;-77
2024/01/24 08:33:44;;;;;;;43.88;6.10;;;11.60;83.00;;;;;;9175679;19;20046;-75
2024/01/24 08:37:00;;;;;;;41.85;7.18;;;11.50;82.90;;;;;;9177101;19;20021;-76
2024/01/24 08:40:08;;;;;;;53.58;7.03;;;11.50;83.00;;;;;;9175673;19;20069;-75
2024/01/24 08:43:19;;;;;;;45.75;6.95;;;11.40;82.80;;;;;;9177543;19;20022;-75
2024/01/24 08:46:29;;;;;;;49.92;7.85;;;11.40;82.60;;;;;;9176210;19;20034;-76
2024/01/24 08:49:44;;;;;;;44.75;7.68;;;11.40;82.70;;;;;;9172632;19;20771;-75
2024/01/24 08:52:56;;;;;;;42.00;7.82;;;11.40;82.60;;;;;;9171287;19;20094;-76
2024/01/24 08:56:10;;;;;;;40.38;6.32;;;11.50;82.70;;;;;;9168173;19;20018;-75
2024/01/24 08:59:41;;;;;;;36.13;5.32;;;11.50;82.60;;;;;;9170706;19;20014;-76
2024/01/24 09:02:53;;;;;;;50.85;7.55;;;12.20;82.90;;;;;;9177104;19;20007;-75
2024/01/24 09:06:13;;;;;;;45.90;6.53;;;11.50;83.10;;;;;;9175516;19;20034;-75
2024/01/24 09:09:32;;;;;;;47.58;8.02;;;11.50;82.80;;;;;;9174114;19;20014;-76
2024/01/24 09:12:47;;;;;;;40.28;5.15;;;11.50;82.50;;;;;;9177383;19;20018;-75
2024/01/24 09:16:26;;;;;;;43.65;5.43;;;11.50;82.30;;;;;;9176109;19;20022;-76
2024/01/24 09:19:36;;;;;;;47.20;6.47;;;11.50;82.30;;;;;;9177045;19;20017;-75
2024/01/24 09:22:47;;;;;;;57.72;6.75;;;11.50;82.10;;;;;;9176007;19;20011;-76
2024/01/24 09:25:53;;;;;;;36.05;5.38;;;11.60;82.20;;;;;;9173925;19;20416;-63
2024/01/24 09:29:00;;;;;;;33.00;5.25;;;11.60;82.10;;;;;;9175112;19;20014;-64
2024/01/24 09:32:09;;;;;;;40.47;6.28;;;11.60;82.00;;;;;;9173316;19;20016;-63
2024/01/24 09:35:17;;;;;;;31.67;4.70;;;11.50;81.60;;;;;;9174389;19;20107;-63
2024/01/24 09:38:23;;;;;;;40.60;5.93;;;11.60;81.70;;;;;;9176743;19;20094;-63
2024/01/24 09:41:36;;;;;;;36.13;6.38;;;11.60;81.70;;;;;;9174987;19;20018;-63
2024/01/24 09:45:02;;;;;;;38.90;6.32;;;11.60;81.60;;;;;;9172840;19;20022;-63
2024/01/24 09:48:16;;;;;;;;;;;11.60;81.50;;;;;;9175007;19;20025;-64
2024/01/24 09:51:23;;;;;;;42.65;5.90;;;11.60;81.70;;;;;;9174861;19;19915;-63
2024/01/24 09:54:32;;;;;;;31.83;5.70;;;11.60;81.50;;;;;;9175109;19;20022;-63
2024/01/24 09:57:39;;;;;;;42.03;4.63;;;11.70;81.40;;;;;;9174021;19;20010;-63
2024/01/24 10:00:47;;;;;;;46.53;6.63;;;11.70;81.30;;;;;;9174578;19;20014;-63
2024/01/24 10:03:58;;;;;;;35.40;4.72;;;11.70;81.30;;;;;;9173915;19;20026;-63
2024/01/24 10:07:09;;;;;;;45.67;6.60;;;11.70;81.20;;;;;;9173758;19;20014;-63
2024/01/24 10:10:21;;;;;;;36.92;7.82;;;11.70;81.20;;;;;;9168173;19;20013;-65
2024/01/24 10:13:29;;;;;;;31.48;5.28;;;11.80;81.10;;;;;;9175786;19;20026;-64
2024/01/24 10:16:35;;;;;;;31.73;5.10;;;11.80;81.10;;;;;;9175159;19;20028;-63
2024/01/24 10:19:45;;;;;;;28.38;5.10;;;11.80;81.10;;;;;;9174565;19;20018;-64
2024/01/24 10:22:52;;;;;;;39.85;5.03;;;11.80;81.00;;;;;;9175411;19;20015;-65
2024/01/24 10:25:59;;;;;;;44.67;6.38;;;11.80;80.90;;;;;;9174994;19;20021;-63
2024/01/24 10:29:06;;;;;;;34.25;5.97;;;11.80;80.80;;;;;;9171895;19;20018;-64
2024/01/24 10:32:14;;;;;;;35.97;5.95;;;11.80;80.60;;;;;;9165604;19;20512;-63
2024/01/24 10:35:22;;;;;;;28.98;5.65;;;11.90;80.80;;;;;;9173055;19;20014;-64
2024/01/24 10:38:33;;;;;;;48.00;5.97;;;11.90;80.60;;;;;;9172189;19;20014;-64
2024/01/24 10:41:41;;;;;;;44.35;5.05;;;11.90;80.40;;;;;;9173227;19;20484;-64
2024/01/24 10:44:51;;;;;;;33.13;5.47;;;11.80;80.30;;;;;;9166557;19;20018;-64
2024/01/24 10:47:57;;;;;;;36.10;5.43;;;11.80;80.30;;;;;;9171638;19;20021;-64
2024/01/24 10:51:08;;;;;;;41.08;5.65;;;12.00;80.50;;;;;;9169441;19;20019;-64
2024/01/24 10:54:16;;;;;;;33.83;5.97;;;11.90;80.30;;;;;;9171885;19;20011;-64
2024/01/24 10:57:27;;;;;;;34.92;5.65;;;11.90;80.20;;;;;;9167208;19;20472;-63
2024/01/24 11:00:33;;;;;;;34.95;5.53;;;11.90;80.10;;;;;;9154749;19;20011;-65
2024/01/24 11:03:40;;;;;;;34.75;5.68;;;11.90;80.00;;;;;;9167731;19;20025;-64
2024/01/24 11:06:54;;;;;;;32.83;4.78;;;12.00;80.00;;;;;;9164474;19;20058;-64
2024/01/24 11:10:18;;;;;;;28.73;4.90;;;12.00;79.90;;;;;;9164734;19;20015;-64
2024/01/24 11:13:26;;;;;;;36.08;6.38;;;12.00;79.70;;;;;;9170244;19;20025;-64
2024/01/24 11:16:39;;;;;;;38.45;6.10;;;12.00;79.80;;;;;;9172999;19;20015;-63
2024/01/24 11:19:45;;;;;;;31.33;4.47;;;12.10;79.90;;;;;;9172598;19;20061;-64
2024/01/24 11:22:56;;;;;;;27.90;5.05;;;12.10;79.90;;;;;;9180121;19;20014;-62
2024/01/24 11:26:01;;;;;;;33.85;6.10;;;12.20;79.70;;;;;;9169609;19;20505;-64
2024/01/24 11:29:12;;;;;;;29.65;5.30;;;12.20;79.70;;;;;;9181045;19;20026;-64
2024/01/24 11:32:57;;;;;;;39.58;5.93;;;12.30;79.50;;;;;;9168726;19;20022;-64
2024/01/24 11:36:14;;;;;;;32.30;4.30;;;12.30;79.20;;;;;;9177916;19;20520;-63
2024/01/24 11:39:39;;;;;;;33.67;4.88;;;12.30;79.50;;;;;;9180156;19;20011;-66
2024/01/24 11:42:55;;;;;;;35.83;5.38;;;12.40;79.30;;;;;;9176943;19;20015;-64
2024/01/24 11:46:04;;;;;;;31.52;4.28;;;12.40;79.10;;;;;;9180907;19;20026;-64
2024/01/24 11:49:12;;;;;;;22.08;4.38;;;12.40;79.00;;;;;;9180888;19;20021;-63
2024/01/24 11:52:23;;;;;;;37.42;5.22;;;12.40;78.70;;;;;;9178921;19;20017;-64
2024/01/24 11:55:33;;;;;;;30.25;4.57;;;12.40;78.60;;;;;;9180205;19;20026;-63
2024/01/24 11:58:38;;;;;;;32.25;5.03;;;12.40;78.60;;;;;;9177431;19;20540;-64
2024/01/24 12:01:46;;;;;;;42.95;4.95;;;12.40;78.60;;;;;;9176344;19;20480;-63
2024/01/24 12:04:52;;;;;;;33.17;5.47;;;12.30;78.30;;;;;;9180158;19;20011;-63
2024/01/24 12:08:00;;;;;;;35.05;5.07;;;12.30;78.30;;;;;;9176119;19;20011;-63
2024/01/24 12:11:10;;;;;;;41.55;5.20;;;12.30;78.30;;;;;;9179257;19;20007;-63
2024/01/24 12:14:18;;;;;;;47.08;6.30;;;12.30;77.90;;;;;;9178817;19;20018;-62
2024/01/24 12:17:25;;;;;;;27.60;4.65;;;12.30;78.00;;;;;;9178696;19;20023;-65
2024/01/24 12:20:33;;;;;;;32.20;5.15;;;12.30;77.80;;;;;;9172180;19;20510;-63
2024/01/24 12:23:39;;;;;;;33.28;4.45;;;12.30;77.80;;;;;;9176165;19;20078;-65
2024/01/24 12:26:49;;;;;;;23.88;4.93;;;12.30;77.80;;;;;;9177511;19;20026;-64
2024/01/24 12:29:58;;;;;;;29.80;5.18;;;12.30;77.70;;;;;;9178872;19;20575;-64
2024/01/24 12:33:07;;;;;;;26.38;5.40;;;12.30;77.80;;;;;;9167582;19;20472;-65
2024/01/24 12:36:13;;;;;;;26.20;5.88;;;12.30;77.80;;;;;;9178275;19;20034;-64
2024/01/24 12:39:28;;;;;;;36.90;6.43;;;12.20;77.50;;;;;;9174708;19;20026;-62
2024/01/24 12:42:37;;;;;;;22.03;3.77;;;12.20;77.30;;;;;;9176963;19;20019;-63
2024/01/24 12:45:45;;;;;;;36.85;5.68;;;12.20;77.50;;;;;;9175365;19;20492;-64
2024/01/24 12:48:50;;;;;;;29.27;4.75;;;12.20;77.60;;;;;;9175344;19;20019;-64
2024/01/24 12:51:58;;;;;;;24.70;4.75;;;12.20;77.60;;;;;;9174257;19;20019;-65
2024/01/24 12:55:05;;;;;;;29.52;4.20;;;12.20;77.50;;;;;;9173003;19;20026;-65
2024/01/24 12:58:15;;;;;;;27.45;4.63;;;12.10;77.30;;;;;;9175037;19;20375;-65
2024/01/24 13:01:21;;;;;;;36.10;4.80;;;12.10;77.20;;;;;;9176250;19;20017;-64
2024/01/24 13:04:28;;;;;;;45.35;7.60;;;12.10;77.20;;;;;;9177698;19;20021;-64
2024/01/24 13:07:36;;;;;;;30.13;4.43;;;12.10;77.30;;;;;;9173661;19;20042;-65
2024/01/24 13:10:44;;;;;;;37.25;6.50;;;12.00;77.20;;;;;;9176461;19;20018;-65
2024/01/24 13:13:54;;;;;;;26.27;4.45;;;12.00;77.10;;;;;;9174618;19;20018;-64
2024/01/24 13:17:04;;;;;;;31.02;5.35;;;12.00;77.20;;;;;;9175995;19;20010;-66
2024/01/24 13:20:11;;;;;;;30.55;4.57;;;11.90;77.10;;;;;;9176632;19;20052;-65
2024/01/24 13:23:18;;;;;;;39.40;6.25;;;11.90;77.00;;;;;;9175309;19;20022;-65
2024/01/24 13:26:24;;;;;;;24.73;4.72;;;11.90;77.20;;;;;;9177141;19;20022;-65
2024/01/24 13:29:35;;;;;;;28.95;4.78;;;11.90;77.10;;;;;;9175773;19;20033;-66
2024/01/24 13:32:41;;;;;;;35.42;7.32;;;11.90;77.20;;;;;;9171413;19;20502;-65
2024/01/24 13:35:48;;;;;;;31.85;4.70;;;11.90;77.30;;;;;;9176014;19;20014;-63
2024/01/24 13:38:54;;;;;;;30.45;5.68;;;11.80;77.20;;;;;;9175821;19;20010;-66
2024/01/24 13:42:01;;;;;;;35.80;5.50;;;11.80;77.00;;;;;;9174135;19;20033;-65
2024/01/24 13:45:11;;;;;;;26.73;4.55;;;11.80;76.90;;;;;;9168143;19;20018;-65
2024/01/24 13:48:18;;;;;;;25.30;4.18;;;11.80;77.10;;;;;;9167209;19;20495;-65
2024/01/24 13:51:24;;;;;;;26.10;4.32;;;11.80;77.00;;;;;;9170919;19;20010;-66
2024/01/24 13:54:48;;;;;;;33.08;5.88;;;11.70;76.90;;;;;;9171023;19;20010;-66
2024/01/24 13:57:58;;;;;;;28.50;4.07;;;11.80;77.10;;;;;;9173054;19;20102;-65
2024/01/24 14:01:10;;;;;;;37.33;5.53;;;11.70;76.90;;;;;;9174865;19;20021;-66
2024/01/24 14:04:16;;;;;;;32.95;4.65;;;11.70;76.90;;;;;;9175526;19;20015;-65
2024/01/24 14:07:25;;;;;;;36.13;4.95;;;11.80;77.00;;;;;;9174943;19;20038;-64
2024/01/24 14:10:30;;;;;;;44.47;7.25;;;11.60;76.70;;;;;;9175040;19;20480;-64
2024/01/24 14:13:38;;;;;;;38.47;4.95;;;11.60;76.90;;;;;;9170791;19;20377;-63
2024/01/24 14:16:46;;;;;;;30.90;4.47;;;11.60;76.80;;;;;;9172064;19;20560;-64
2024/01/24 14:19:54;;;;;;;34.33;5.43;;;11.60;76.80;;;;;;9169275;19;20025;-63
2024/01/24 14:23:00;;;;;;;31.15;4.88;;;11.60;76.90;;;;;;9172087;19;20018;-64
2024/01/24 14:26:07;;;;;;;37.75;5.43;;;11.60;76.90;;;;;;9172727;19;20629;-65
2024/01/24 14:29:15;;;;;;;31.92;4.55;;;11.60;76.90;;;;;;9171928;19;20391;-66
2024/01/24 14:32:25;;;;;;;19.58;3.55;;;11.60;76.80;;;;;;9166911;19;20015;-66
2024/01/24 14:35:31;;;;;;;27.48;5.78;;;11.50;76.80;;;;;;9172544;19;20017;-66
2024/01/24 14:38:39;;;;;;;23.70;3.92;;;11.50;76.80;;;;;;9173270;19;20023;-64
2024/01/24 14:41:44;;;;;;;30.83;5.25;;;11.50;76.80;;;;;;9173760;19;20022;-65
2024/01/24 14:44:54;;;;;;;25.75;4.30;;;11.50;76.80;;;;;;9172475;19;20017;-65
2024/01/24 14:48:02;;;;;;;30.55;5.28;;;11.50;76.80;;;;;;9172669;19;20540;-65
2024/01/24 14:51:10;;;;;;;33.95;5.43;;;11.40;76.70;;;;;;9173413;19;20654;-64
2024/01/24 14:54:16;;;;;;;27.13;4.30;;;11.40;76.70;;;;;;9173432;19;20018;-65
2024/01/24 14:57:24;;;;;;;33.05;4.75;;;11.40;76.80;;;;;;9178371;19;20010;-66
2024/01/24 15:00:30;;;;;;;27.98;5.13;;;11.30;76.70;;;;;;9181263;19;20137;-65
2024/01/24 15:03:41;;;;;;;33.33;5.35;;;11.40;76.80;;;;;;9181202;19;20021;-65
2024/01/24 15:06:46;;;;;;;31.67;4.28;;;11.30;76.70;;;;;;9178820;19;20018;-65
2024/01/24 15:09:54;;;;;;;32.13;3.92;;;11.30;76.80;;;;;;9181696;19;20607;-65
2024/01/24 15:12:59;;;;;;;26.15;3.70;;;11.30;76.80;;;;;;9180654;19;20015;-66
2024/01/24 15:16:07;;;;;;;34.42;4.35;;;11.20;76.80;;;;;;9179551;19;20026;-65
2024/01/24 15:19:16;;;;;;;33.17;5.40;;;11.20;76.80;;;;;;9179968;19;20787;-65
2024/01/24 15:22:23;;;;;;;26.27;3.55;;;11.20;76.70;;;;;;9180870;19;20029;-64
2024/01/24 15:25:29;;;;;;;23.38;3.25;;;11.20;76.80;;;;;;9181130;19;20026;-64
2024/01/24 15:28:37;;;;;;;30.90;4.78;;;11.20;76.80;;;;;;9180457;19;20019;-65
2024/01/24 15:31:45;;;;;;;24.65;4.53;;;11.10;76.80;;;;;;9174640;19;20453;-63
2024/01/24 15:34:55;;;;;;;29.00;4.72;;;11.00;76.70;;;;;;9179114;19;20709;-64
2024/01/24 15:38:01;;;;;;;30.00;4.95;;;11.00;76.70;;;;;;9180609;19;20314;-66
2024/01/24 15:41:08;;;;;;;28.50;4.72;;;11.00;76.80;;;;;;9179214;19;20011;-64
2024/01/24 15:44:15;;;;;;;29.08;4.50;;;11.00;76.80;;;;;;9180653;19;20035;-64
2024/01/24 15:47:23;;;;;;;33.20;5.22;;;11.00;76.80;;;;;;9180291;19;20014;-65
2024/01/24 15:50:32;;;;;;;32.35;4.80;;;10.90;76.70;;;;;;9180624;19;20006;-65
2024/01/24 15:53:41;;;;;;;36.95;4.60;;;10.90;76.80;;;;;;9178693;19;20509;-65
2024/01/24 15:56:46;;;;;;;37.15;4.50;;;10.90;76.80;;;;;;9179319;19;20022;-66
2024/01/24 15:59:54;;;;;;;25.80;4.22;;;10.90;76.90;;;;;;9179748;19;20023;-65
2024/01/24 16:02:59;;;;;;;28.30;4.25;;;10.80;76.80;;;;;;9178679;19;20014;-65
2024/01/24 16:06:10;;;;;;;31.38;3.35;;;10.80;76.90;;;;;;9177282;19;20015;-65
2024/01/24 16:09:17;;;;;;;36.70;6.65;;;10.80;76.80;;;;;;9180067;19;20385;-65
2024/01/24 16:12:24;;;;;;;26.92;4.40;;;10.80;76.90;;;;;;9177415;19;20723;-64
2024/01/24 16:15:30;;;;;;;27.42;4.15;;;10.70;76.90;;;;;;9172144;19;20534;-64